createdAt,value
2019-05-23T00:00:10.000Z,1022.16
2019-05-23T00:01:10.000Z,1022.16
2019-05-23T00:02:10.000Z,1022.17
2019-05-23T00:03:10.000Z,1022.17
2019-05-23T00:04:10.000Z,1022.17
2019-05-23T00:05:10.000Z,1022.16
2019-05-23T00:06:10.000Z,1022.16
2019-05-23T00:07:10.000Z,1022.11
2019-05-23T00:08:10.000Z,1022.17
2019-05-23T00:09:10.000Z,1022.12
2019-05-23T00:10:10.000Z,1022.14
2019-05-23T00:11:10.000Z,1022.11
2019-05-23T00:12:10.000Z,1022.15
2019-05-23T00:13:10.000Z,1022.14
2019-05-23T00:14:10.000Z,1022.14
2019-05-23T00:15:10.000Z,1022.10
2019-05-23T00:16:10.000Z,1022.10
2019-05-23T00:17:10.000Z,1022.14
2019-05-23T00:18:10.000Z,1022.13
2019-05-23T00:19:10.000Z,1022.11
2019-05-23T00:20:10.000Z,1022.08
2019-05-23T00:21:10.000Z,1022.11
2019-05-23T00:22:10.000Z,1022.10
2019-05-23T00:23:10.000Z,1022.08
2019-05-23T00:24:10.000Z,1022.07
2019-05-23T00:25:11.000Z,1022.04
2019-05-23T00:26:11.000Z,1022.02
2019-05-23T00:27:10.000Z,1022.02
2019-05-23T00:28:10.000Z,1022.02
2019-05-23T00:29:10.000Z,1022.00
2019-05-23T00:30:10.000Z,1021.98
2019-05-23T00:31:10.000Z,1022.02
2019-05-23T00:32:10.000Z,1022.02
2019-05-23T00:33:10.000Z,1021.99
2019-05-23T00:34:10.000Z,1021.99
2019-05-23T00:35:10.000Z,1022.00
2019-05-23T00:36:10.000Z,1021.98
2019-05-23T00:37:10.000Z,1022.00
2019-05-23T00:38:10.000Z,1022.01
2019-05-23T00:39:10.000Z,1021.97
2019-05-23T00:40:10.000Z,1021.97
2019-05-23T00:41:10.000Z,1021.94
2019-05-23T00:42:10.000Z,1021.94
2019-05-23T00:43:10.000Z,1021.93
2019-05-23T00:44:10.000Z,1021.94
2019-05-23T00:45:10.000Z,1021.90
2019-05-23T00:46:10.000Z,1021.94
2019-05-23T00:47:10.000Z,1021.90
2019-05-23T00:48:10.000Z,1021.95
2019-05-23T00:49:10.000Z,1021.92
2019-05-23T00:50:10.000Z,1021.94
2019-05-23T00:51:10.000Z,1021.89
2019-05-23T00:52:10.000Z,1021.90
2019-05-23T00:53:10.000Z,1021.90
2019-05-23T00:54:10.000Z,1021.86
2019-05-23T00:55:10.000Z,1021.88
2019-05-23T00:56:10.000Z,1021.91
2019-05-23T00:57:10.000Z,1021.92
2019-05-23T00:58:10.000Z,1021.94
2019-05-23T00:59:10.000Z,1021.91
2019-05-23T01:00:10.000Z,1021.89
2019-05-23T01:01:10.000Z,1021.93
2019-05-23T01:02:10.000Z,1021.93
2019-05-23T01:03:10.000Z,1021.94
2019-05-23T01:04:10.000Z,1021.92
2019-05-23T01:05:10.000Z,1021.91
2019-05-23T01:06:10.000Z,1021.96
2019-05-23T01:07:10.000Z,1021.91
2019-05-23T01:08:10.000Z,1021.90
2019-05-23T01:09:10.000Z,1021.91
2019-05-23T01:10:10.000Z,1021.88
2019-05-23T01:11:10.000Z,1021.89
2019-05-23T01:12:10.000Z,1021.91
2019-05-23T01:13:10.000Z,1021.88
2019-05-23T01:14:10.000Z,1021.84
2019-05-23T01:15:10.000Z,1021.86
2019-05-23T01:16:10.000Z,1021.87
2019-05-23T01:17:10.000Z,1021.89
2019-05-23T01:18:10.000Z,1021.87
2019-05-23T01:19:10.000Z,1021.84
2019-05-23T01:20:10.000Z,1021.85
2019-05-23T01:21:10.000Z,1021.85
2019-05-23T01:22:10.000Z,1021.88
2019-05-23T01:23:10.000Z,1021.86
2019-05-23T01:24:10.000Z,1021.88
2019-05-23T01:25:10.000Z,1021.86
2019-05-23T01:26:10.000Z,1021.89
2019-05-23T01:27:10.000Z,1021.86
2019-05-23T01:28:10.000Z,1021.89
2019-05-23T01:29:10.000Z,1021.88
2019-05-23T01:30:10.000Z,1021.88
2019-05-23T01:31:10.000Z,1021.88
2019-05-23T01:32:10.000Z,1021.87
2019-05-23T01:33:10.000Z,1021.85
2019-05-23T01:34:10.000Z,1021.87
2019-05-23T01:35:10.000Z,1021.86
2019-05-23T01:36:10.000Z,1021.84
2019-05-23T01:37:10.000Z,1021.86
2019-05-23T01:38:10.000Z,1021.85
2019-05-23T01:39:10.000Z,1021.88
2019-05-23T01:40:10.000Z,1021.83
2019-05-23T01:41:10.000Z,1021.84
2019-05-23T01:42:10.000Z,1021.87
2019-05-23T01:43:10.000Z,1021.84
2019-05-23T01:44:10.000Z,1021.82
2019-05-23T01:45:10.000Z,1021.83
2019-05-23T01:46:10.000Z,1021.85
2019-05-23T01:47:10.000Z,1021.79
2019-05-23T01:48:10.000Z,1021.85
2019-05-23T01:49:10.000Z,1021.83
2019-05-23T01:50:10.000Z,1021.82
2019-05-23T01:51:10.000Z,1021.85
2019-05-23T01:52:10.000Z,1021.86
2019-05-23T01:53:10.000Z,1021.83
2019-05-23T01:54:10.000Z,1021.82
2019-05-23T01:55:10.000Z,1021.81
2019-05-23T01:56:10.000Z,1021.83
2019-05-23T01:57:10.000Z,1021.80
2019-05-23T01:58:10.000Z,1021.83
2019-05-23T01:59:11.000Z,1021.81
2019-05-23T02:00:11.000Z,1021.79
2019-05-23T02:01:10.000Z,1021.81
2019-05-23T02:02:11.000Z,1021.80
2019-05-23T02:03:11.000Z,1021.82
2019-05-23T02:04:10.000Z,1021.83
2019-05-23T02:05:10.000Z,1021.82
2019-05-23T02:06:10.000Z,1021.83
2019-05-23T02:07:10.000Z,1021.81
2019-05-23T02:08:10.000Z,1021.83
2019-05-23T02:09:11.000Z,1021.81
2019-05-23T02:10:10.000Z,1021.80
2019-05-23T02:11:11.000Z,1021.86
2019-05-23T02:12:10.000Z,1021.82
2019-05-23T02:13:11.000Z,1021.85
2019-05-23T02:14:10.000Z,1021.85
2019-05-23T02:15:10.000Z,1021.87
2019-05-23T02:16:10.000Z,1021.89
2019-05-23T02:17:10.000Z,1021.84
2019-05-23T02:18:11.000Z,1021.91
2019-05-23T02:19:10.000Z,1021.86
2019-05-23T02:20:11.000Z,1021.83
2019-05-23T02:21:11.000Z,1021.88
2019-05-23T02:22:11.000Z,1021.85
2019-05-23T02:23:10.000Z,1021.90
2019-05-23T02:24:10.000Z,1021.86
2019-05-23T02:25:10.000Z,1021.84
2019-05-23T02:26:10.000Z,1021.86
2019-05-23T02:27:10.000Z,1021.84
2019-05-23T02:28:11.000Z,1021.89
2019-05-23T02:29:10.000Z,1021.85
2019-05-23T02:30:10.000Z,1021.85
2019-05-23T02:31:10.000Z,1021.85
2019-05-23T02:32:10.000Z,1021.82
2019-05-23T02:33:10.000Z,1021.85
2019-05-23T02:34:11.000Z,1021.84
2019-05-23T02:35:10.000Z,1021.80
2019-05-23T02:36:10.000Z,1021.81
2019-05-23T02:37:11.000Z,1021.85
2019-05-23T02:38:10.000Z,1021.79
2019-05-23T02:39:11.000Z,1021.84
2019-05-23T02:40:10.000Z,1021.81
2019-05-23T02:41:10.000Z,1021.82
2019-05-23T02:42:10.000Z,1021.81
2019-05-23T02:43:10.000Z,1021.85
2019-05-23T02:44:10.000Z,1021.81
2019-05-23T02:45:10.000Z,1021.84
2019-05-23T02:46:10.000Z,1021.81
2019-05-23T02:47:10.000Z,1021.81
2019-05-23T02:48:10.000Z,1021.82
2019-05-23T02:49:10.000Z,1021.84
2019-05-23T02:50:10.000Z,1021.82
2019-05-23T02:51:10.000Z,1021.86
2019-05-23T02:52:10.000Z,1021.83
2019-05-23T02:53:10.000Z,1021.83
2019-05-23T02:54:10.000Z,1021.82
2019-05-23T02:55:10.000Z,1021.88
2019-05-23T02:56:10.000Z,1021.89
2019-05-23T02:57:10.000Z,1021.88
2019-05-23T02:58:10.000Z,1021.86
2019-05-23T02:59:10.000Z,1021.86
2019-05-23T03:00:10.000Z,1021.81
2019-05-23T03:01:10.000Z,1021.83
2019-05-23T03:02:10.000Z,1021.80
2019-05-23T03:03:10.000Z,1021.78
2019-05-23T03:04:10.000Z,1021.77
2019-05-23T03:05:10.000Z,1021.76
2019-05-23T03:06:10.000Z,1021.78
2019-05-23T03:07:10.000Z,1021.78
2019-05-23T03:08:10.000Z,1021.80
2019-05-23T03:09:10.000Z,1021.81
2019-05-23T03:10:10.000Z,1021.79
2019-05-23T03:11:10.000Z,1021.77
2019-05-23T03:12:10.000Z,1021.74
2019-05-23T03:13:10.000Z,1021.73
2019-05-23T03:14:10.000Z,1021.78
2019-05-23T03:15:10.000Z,1021.77
2019-05-23T03:16:10.000Z,1021.77
2019-05-23T03:17:10.000Z,1021.78
2019-05-23T03:18:10.000Z,1021.82
2019-05-23T03:19:10.000Z,1021.80
2019-05-23T03:20:10.000Z,1021.81
2019-05-23T03:21:10.000Z,1021.83
2019-05-23T03:22:10.000Z,1021.83
2019-05-23T03:23:10.000Z,1021.84
2019-05-23T03:24:10.000Z,1021.80
2019-05-23T03:25:10.000Z,1021.82
2019-05-23T03:28:10.000Z,1021.82
2019-05-23T03:29:11.000Z,1021.82
2019-05-23T03:30:11.000Z,1021.81
2019-05-23T03:31:11.000Z,1021.82
2019-05-23T03:32:11.000Z,1021.82
2019-05-23T03:33:11.000Z,1021.79
2019-05-23T03:34:11.000Z,1021.79
2019-05-23T03:35:10.000Z,1021.80
2019-05-23T03:36:10.000Z,1021.79
2019-05-23T03:37:10.000Z,1021.80
2019-05-23T03:38:10.000Z,1021.83
2019-05-23T03:39:11.000Z,1021.82
2019-05-23T03:40:11.000Z,1021.84
2019-05-23T03:41:10.000Z,1021.81
2019-05-23T03:42:10.000Z,1021.82
2019-05-23T03:43:11.000Z,1021.86
2019-05-23T03:44:11.000Z,1021.86
2019-05-23T03:45:11.000Z,1021.86
2019-05-23T03:46:11.000Z,1021.85
2019-05-23T03:47:11.000Z,1021.83
2019-05-23T03:48:11.000Z,1021.88
2019-05-23T03:49:11.000Z,1021.87
2019-05-23T03:50:11.000Z,1021.89
2019-05-23T03:51:11.000Z,1021.85
2019-05-23T03:52:11.000Z,1021.86
2019-05-23T03:53:10.000Z,1021.84
2019-05-23T03:54:10.000Z,1021.81
2019-05-23T03:55:10.000Z,1021.85
2019-05-23T03:56:10.000Z,1021.79
2019-05-23T03:57:10.000Z,1021.81
2019-05-23T03:58:10.000Z,1021.81
2019-05-23T03:59:10.000Z,1021.83
2019-05-23T04:00:10.000Z,1021.81
2019-05-23T04:01:10.000Z,1021.87
2019-05-23T04:02:10.000Z,1021.86
2019-05-23T04:03:10.000Z,1021.84
2019-05-23T04:04:10.000Z,1021.84
2019-05-23T04:05:11.000Z,1021.85
2019-05-23T04:06:10.000Z,1021.84
2019-05-23T04:07:11.000Z,1021.85
2019-05-23T04:08:11.000Z,1021.84
2019-05-23T04:09:11.000Z,1021.78
2019-05-23T04:10:11.000Z,1021.77
2019-05-23T04:11:11.000Z,1021.80
2019-05-23T04:12:11.000Z,1021.81
2019-05-23T04:13:10.000Z,1021.79
2019-05-23T04:14:10.000Z,1021.80
2019-05-23T04:15:10.000Z,1021.83
2019-05-23T04:16:10.000Z,1021.79
2019-05-23T04:17:10.000Z,1021.81
2019-05-23T04:18:10.000Z,1021.81
2019-05-23T04:19:10.000Z,1021.80
2019-05-23T04:20:10.000Z,1021.74
2019-05-23T04:21:10.000Z,1021.75
2019-05-23T04:22:10.000Z,1021.74
2019-05-23T04:23:10.000Z,1021.72
2019-05-23T04:24:10.000Z,1021.71
2019-05-23T04:25:10.000Z,1021.73
2019-05-23T04:26:10.000Z,1021.74
2019-05-23T04:27:10.000Z,1021.75
2019-05-23T04:28:11.000Z,1021.74
2019-05-23T04:29:10.000Z,1021.75
2019-05-23T04:30:10.000Z,1021.74
2019-05-23T04:31:10.000Z,1021.74
2019-05-23T04:32:10.000Z,1021.72
2019-05-23T04:33:10.000Z,1021.75
2019-05-23T04:34:10.000Z,1021.74
2019-05-23T04:35:10.000Z,1021.75
2019-05-23T04:36:10.000Z,1021.73
2019-05-23T04:37:10.000Z,1021.71
2019-05-23T04:38:10.000Z,1021.73
2019-05-23T04:39:10.000Z,1021.71
2019-05-23T04:40:10.000Z,1021.72
2019-05-23T04:41:10.000Z,1021.75
2019-05-23T04:42:10.000Z,1021.73
2019-05-23T04:43:10.000Z,1021.76
2019-05-23T04:44:10.000Z,1021.72
2019-05-23T04:45:10.000Z,1021.74
2019-05-23T04:46:10.000Z,1021.75
2019-05-23T04:47:10.000Z,1021.77
2019-05-23T04:48:10.000Z,1021.78
2019-05-23T04:49:10.000Z,1021.75
2019-05-23T04:50:10.000Z,1021.75
2019-05-23T04:51:10.000Z,1021.72
2019-05-23T04:52:10.000Z,1021.70
2019-05-23T04:53:10.000Z,1021.68
2019-05-23T04:54:10.000Z,1021.70
2019-05-23T04:55:10.000Z,1021.69
2019-05-23T04:56:10.000Z,1021.69
2019-05-23T04:57:10.000Z,1021.74
2019-05-23T04:58:10.000Z,1021.68
2019-05-23T04:59:10.000Z,1021.71
2019-05-23T05:00:10.000Z,1021.67
2019-05-23T05:01:10.000Z,1021.70
2019-05-23T05:02:10.000Z,1021.69
2019-05-23T05:03:10.000Z,1021.69
2019-05-23T05:04:10.000Z,1021.70
2019-05-23T05:05:10.000Z,1021.70
2019-05-23T05:06:10.000Z,1021.66
2019-05-23T05:07:11.000Z,1021.70
2019-05-23T05:08:10.000Z,1021.74
2019-05-23T05:09:10.000Z,1021.67
2019-05-23T05:10:10.000Z,1021.69
2019-05-23T05:11:10.000Z,1021.73
2019-05-23T05:12:10.000Z,1021.71
2019-05-23T05:13:10.000Z,1021.70
2019-05-23T05:14:10.000Z,1021.69
2019-05-23T05:15:10.000Z,1021.73
2019-05-23T05:16:10.000Z,1021.71
2019-05-23T05:17:10.000Z,1021.74
2019-05-23T05:18:10.000Z,1021.76
2019-05-23T05:19:10.000Z,1021.79
2019-05-23T05:20:10.000Z,1021.85
2019-05-23T05:21:10.000Z,1021.81
2019-05-23T05:22:10.000Z,1021.86
2019-05-23T05:23:10.000Z,1021.84
2019-05-23T05:24:10.000Z,1021.85
2019-05-23T05:25:10.000Z,1021.85
2019-05-23T05:26:11.000Z,1021.86
2019-05-23T05:27:11.000Z,1021.87
2019-05-23T05:28:10.000Z,1021.89
2019-05-23T05:29:10.000Z,1021.88
2019-05-23T05:30:10.000Z,1021.89
2019-05-23T05:31:10.000Z,1021.89
2019-05-23T05:32:11.000Z,1021.93
2019-05-23T05:33:10.000Z,1021.90
2019-05-23T05:34:11.000Z,1021.93
2019-05-23T05:35:10.000Z,1021.92
2019-05-23T05:36:11.000Z,1021.94
2019-05-23T05:37:11.000Z,1021.95
2019-05-23T05:38:11.000Z,1021.94
2019-05-23T05:39:11.000Z,1021.99
2019-05-23T05:40:11.000Z,1021.95
2019-05-23T05:41:11.000Z,1021.99
2019-05-23T05:42:11.000Z,1021.99
2019-05-23T05:43:12.000Z,1022.00
2019-05-23T05:44:11.000Z,1021.98
2019-05-23T05:45:11.000Z,1021.97
2019-05-23T05:46:10.000Z,1021.98
2019-05-23T05:47:10.000Z,1021.94
2019-05-23T05:48:10.000Z,1021.95
2019-05-23T05:49:10.000Z,1021.96
2019-05-23T05:50:10.000Z,1021.96
2019-05-23T05:51:10.000Z,1021.93
2019-05-23T05:52:11.000Z,1022.01
2019-05-23T05:53:11.000Z,1022.00
2019-05-23T05:54:11.000Z,1021.99
2019-05-23T05:55:11.000Z,1022.02
2019-05-23T05:56:11.000Z,1022.01
2019-05-23T05:57:11.000Z,1022.03
2019-05-23T05:58:11.000Z,1022.01
2019-05-23T05:59:11.000Z,1022.02
2019-05-23T06:00:11.000Z,1022.01
2019-05-23T06:01:10.000Z,1021.95
2019-05-23T06:02:10.000Z,1021.99
2019-05-23T06:03:10.000Z,1021.95
2019-05-23T06:04:10.000Z,1021.91
2019-05-23T06:05:10.000Z,1021.94
2019-05-23T06:06:10.000Z,1021.93
2019-05-23T06:07:10.000Z,1021.96
2019-05-23T06:08:10.000Z,1021.95
2019-05-23T06:09:10.000Z,1021.91
2019-05-23T06:10:11.000Z,1021.98
2019-05-23T06:11:10.000Z,1021.94
2019-05-23T06:12:10.000Z,1021.97
2019-05-23T06:13:10.000Z,1021.99
2019-05-23T06:14:10.000Z,1021.98
2019-05-23T06:15:10.000Z,1021.97
2019-05-23T06:16:10.000Z,1022.00
2019-05-23T06:17:10.000Z,1022.00
2019-05-23T06:18:10.000Z,1022.01
2019-05-23T06:19:10.000Z,1022.00
2019-05-23T06:20:10.000Z,1021.99
2019-05-23T06:21:10.000Z,1021.99
2019-05-23T06:22:10.000Z,1021.99
2019-05-23T06:23:10.000Z,1021.99
2019-05-23T06:24:10.000Z,1021.96
2019-05-23T06:25:10.000Z,1021.98
2019-05-23T06:26:10.000Z,1021.99
2019-05-23T06:27:10.000Z,1021.96
2019-05-23T06:28:10.000Z,1021.98
2019-05-23T06:29:10.000Z,1021.97
2019-05-23T06:30:10.000Z,1021.94
2019-05-23T06:31:10.000Z,1021.98
2019-05-23T06:32:11.000Z,1021.93
2019-05-23T06:33:10.000Z,1021.95
2019-05-23T06:34:10.000Z,1021.96
2019-05-23T06:35:10.000Z,1021.98
2019-05-23T06:36:10.000Z,1021.99
2019-05-23T06:37:10.000Z,1021.98
2019-05-23T06:38:11.000Z,1021.98
2019-05-23T06:39:11.000Z,1021.98
2019-05-23T06:40:10.000Z,1022.02
2019-05-23T06:41:10.000Z,1022.03
2019-05-23T06:42:10.000Z,1022.01
2019-05-23T06:43:10.000Z,1022.05
2019-05-23T06:44:10.000Z,1022.06
2019-05-23T06:45:10.000Z,1022.05
2019-05-23T06:46:10.000Z,1022.04
2019-05-23T06:47:10.000Z,1022.02
2019-05-23T06:48:10.000Z,1022.05
2019-05-23T06:49:10.000Z,1022.02
2019-05-23T06:50:10.000Z,1022.04
2019-05-23T06:51:10.000Z,1022.01
2019-05-23T06:52:10.000Z,1022.01
2019-05-23T06:53:11.000Z,1022.03
2019-05-23T06:54:10.000Z,1022.00
2019-05-23T06:55:10.000Z,1022.02
2019-05-23T06:56:10.000Z,1022.02
2019-05-23T06:57:10.000Z,1022.03
2019-05-23T06:58:10.000Z,1022.01
2019-05-23T06:59:10.000Z,1022.00
2019-05-23T07:00:10.000Z,1021.99
2019-05-23T07:01:10.000Z,1021.95
2019-05-23T07:02:10.000Z,1021.94
2019-05-23T07:03:10.000Z,1021.92
2019-05-23T07:04:10.000Z,1021.93
2019-05-23T07:05:10.000Z,1021.94
2019-05-23T07:06:10.000Z,1021.94
2019-05-23T07:07:10.000Z,1021.94
2019-05-23T07:08:10.000Z,1021.98
2019-05-23T07:09:10.000Z,1021.95
2019-05-23T07:10:10.000Z,1021.98
2019-05-23T07:11:10.000Z,1021.95
2019-05-23T07:12:10.000Z,1021.98
2019-05-23T07:13:10.000Z,1021.99
2019-05-23T07:14:11.000Z,1021.98
2019-05-23T07:15:11.000Z,1022.01
2019-05-23T07:16:11.000Z,1022.07
2019-05-23T07:17:10.000Z,1022.05
2019-05-23T07:18:10.000Z,1022.07
2019-05-23T07:19:10.000Z,1022.10
2019-05-23T07:20:10.000Z,1022.10
2019-05-23T07:21:10.000Z,1022.13
2019-05-23T07:22:10.000Z,1022.12
2019-05-23T07:23:10.000Z,1022.11
2019-05-23T07:24:10.000Z,1022.12
2019-05-23T07:25:10.000Z,1022.15
2019-05-23T07:26:10.000Z,1022.16
2019-05-23T07:27:10.000Z,1022.16
2019-05-23T07:28:11.000Z,1022.16
2019-05-23T07:29:10.000Z,1022.17
2019-05-23T07:30:10.000Z,1022.16
2019-05-23T07:31:10.000Z,1022.20
2019-05-23T07:32:10.000Z,1022.14
2019-05-23T07:33:10.000Z,1022.17
2019-05-23T07:34:10.000Z,1022.16
2019-05-23T07:35:10.000Z,1022.17
2019-05-23T07:36:10.000Z,1022.16
2019-05-23T07:37:10.000Z,1022.18
2019-05-23T07:38:10.000Z,1022.16
2019-05-23T07:39:10.000Z,1022.17
2019-05-23T07:40:10.000Z,1022.13
2019-05-23T07:41:10.000Z,1022.17
2019-05-23T07:42:10.000Z,1022.13
2019-05-23T07:43:10.000Z,1022.13
2019-05-23T07:44:10.000Z,1022.13
2019-05-23T07:45:10.000Z,1022.13
2019-05-23T07:46:10.000Z,1022.18
2019-05-23T07:47:10.000Z,1022.16
2019-05-23T07:48:10.000Z,1022.17
2019-05-23T07:49:10.000Z,1022.16
2019-05-23T07:50:10.000Z,1022.20
2019-05-23T07:51:10.000Z,1022.18
2019-05-23T07:52:10.000Z,1022.21
2019-05-23T07:53:10.000Z,1022.18
2019-05-23T07:54:10.000Z,1022.16
2019-05-23T07:55:10.000Z,1022.16
2019-05-23T07:56:10.000Z,1022.17
2019-05-23T07:57:10.000Z,1022.16
2019-05-23T07:58:11.000Z,1022.21
2019-05-23T07:59:10.000Z,1022.17
2019-05-23T08:00:10.000Z,1022.21
2019-05-23T08:01:10.000Z,1022.22
2019-05-23T08:02:10.000Z,1022.19
2019-05-23T08:03:10.000Z,1022.15
2019-05-23T08:04:10.000Z,1022.13
2019-05-23T08:05:11.000Z,1022.13
2019-05-23T08:06:11.000Z,1022.16
2019-05-23T08:07:11.000Z,1022.17
2019-05-23T08:08:11.000Z,1022.14
2019-05-23T08:09:11.000Z,1022.12
2019-05-23T08:10:10.000Z,1022.16
2019-05-23T08:11:10.000Z,1022.15
2019-05-23T08:12:10.000Z,1022.11
2019-05-23T08:13:10.000Z,1022.08
2019-05-23T08:14:10.000Z,1022.11
2019-05-23T08:15:10.000Z,1022.08
2019-05-23T08:16:10.000Z,1022.05
2019-05-23T08:17:11.000Z,1022.09
2019-05-23T08:18:10.000Z,1022.10
2019-05-23T08:19:11.000Z,1022.10
2019-05-23T08:20:11.000Z,1022.11
2019-05-23T08:21:10.000Z,1022.10
2019-05-23T08:22:11.000Z,1022.09
2019-05-23T08:23:11.000Z,1022.09
2019-05-23T08:24:11.000Z,1022.09
2019-05-23T08:25:11.000Z,1022.10
2019-05-23T08:26:11.000Z,1022.09
2019-05-23T08:27:11.000Z,1022.13
2019-05-23T08:28:11.000Z,1022.06
2019-05-23T08:29:11.000Z,1022.03
2019-05-23T08:30:11.000Z,1022.04
2019-05-23T08:31:11.000Z,1022.02
2019-05-23T08:32:10.000Z,1022.05
2019-05-23T08:33:10.000Z,1022.04
2019-05-23T08:34:10.000Z,1022.03
2019-05-23T08:35:11.000Z,1022.03
2019-05-23T08:36:10.000Z,1022.06
2019-05-23T08:37:10.000Z,1022.01
2019-05-23T08:38:10.000Z,1022.04
2019-05-23T08:39:10.000Z,1022.02
2019-05-23T08:40:10.000Z,1021.98
2019-05-23T08:41:11.000Z,1022.01
2019-05-23T08:42:11.000Z,1021.99
2019-05-23T08:43:10.000Z,1021.97
2019-05-23T08:44:11.000Z,1021.99
2019-05-23T08:45:11.000Z,1021.97
2019-05-23T08:46:11.000Z,1021.94
2019-05-23T08:47:11.000Z,1021.92
2019-05-23T08:48:11.000Z,1021.92
2019-05-23T08:49:10.000Z,1021.93
2019-05-23T08:50:10.000Z,1021.88
2019-05-23T08:51:10.000Z,1021.90
2019-05-23T08:52:10.000Z,1021.90
2019-05-23T08:53:10.000Z,1021.87
2019-05-23T08:54:10.000Z,1021.83
2019-05-23T08:55:10.000Z,1021.84
2019-05-23T08:56:10.000Z,1021.86
2019-05-23T08:57:10.000Z,1021.82
2019-05-23T08:58:11.000Z,1021.81
2019-05-23T08:59:10.000Z,1021.80
2019-05-23T09:00:11.000Z,1021.78
2019-05-23T09:01:11.000Z,1021.76
2019-05-23T09:02:11.000Z,1021.74
2019-05-23T09:03:11.000Z,1021.72
2019-05-23T09:04:11.000Z,1021.75
2019-05-23T09:05:10.000Z,1021.77
2019-05-23T09:06:10.000Z,1021.75
2019-05-23T09:07:10.000Z,1021.76
2019-05-23T09:08:10.000Z,1021.74
2019-05-23T09:09:10.000Z,1021.73
2019-05-23T09:10:10.000Z,1021.73
2019-05-23T09:11:10.000Z,1021.71
2019-05-23T09:12:10.000Z,1021.71
2019-05-23T09:13:10.000Z,1021.73
2019-05-23T09:14:10.000Z,1021.75
2019-05-23T09:15:10.000Z,1021.75
2019-05-23T09:16:10.000Z,1021.73
2019-05-23T09:17:10.000Z,1021.75
2019-05-23T09:18:10.000Z,1021.74
2019-05-23T09:19:10.000Z,1021.73
2019-05-23T09:20:10.000Z,1021.71
2019-05-23T09:21:10.000Z,1021.71
2019-05-23T09:22:10.000Z,1021.70
2019-05-23T09:23:10.000Z,1021.65
2019-05-23T09:24:11.000Z,1021.65
2019-05-23T09:25:10.000Z,1021.66
2019-05-23T09:26:10.000Z,1021.65
2019-05-23T09:27:10.000Z,1021.65
2019-05-23T09:28:10.000Z,1021.67
2019-05-23T09:29:10.000Z,1021.65
2019-05-23T09:30:10.000Z,1021.63
2019-05-23T09:31:12.000Z,1021.68
2019-05-23T09:32:11.000Z,1021.65
2019-05-23T09:33:10.000Z,1021.65
2019-05-23T09:34:11.000Z,1021.60
2019-05-23T09:35:10.000Z,1021.59
2019-05-23T09:36:10.000Z,1021.64
2019-05-23T09:37:10.000Z,1021.59
2019-05-23T09:38:10.000Z,1021.62
2019-05-23T09:39:10.000Z,1021.65
2019-05-23T09:40:10.000Z,1021.62
2019-05-23T09:41:10.000Z,1021.67
2019-05-23T09:42:10.000Z,1021.62
2019-05-23T09:43:10.000Z,1021.64
2019-05-23T09:44:10.000Z,1021.64
2019-05-23T09:45:11.000Z,1021.61
2019-05-23T09:46:11.000Z,1021.65
2019-05-23T09:47:10.000Z,1021.61
2019-05-23T09:48:10.000Z,1021.67
2019-05-23T09:49:10.000Z,1021.60
2019-05-23T09:50:11.000Z,1021.56
2019-05-23T09:51:10.000Z,1021.60
2019-05-23T09:52:10.000Z,1021.60
2019-05-23T09:53:10.000Z,1021.56
2019-05-23T09:54:10.000Z,1021.58
2019-05-23T09:55:10.000Z,1021.55
2019-05-23T09:56:10.000Z,1021.54
2019-05-23T09:57:10.000Z,1021.52
2019-05-23T09:58:10.000Z,1021.49
2019-05-23T09:59:10.000Z,1021.49
2019-05-23T10:00:10.000Z,1021.48
2019-05-23T10:01:10.000Z,1021.46
2019-05-23T10:02:10.000Z,1021.44
2019-05-23T10:03:10.000Z,1021.43
2019-05-23T10:04:10.000Z,1021.45
2019-05-23T10:05:10.000Z,1021.45
2019-05-23T10:06:10.000Z,1021.47
2019-05-23T10:07:10.000Z,1021.44
2019-05-23T10:08:10.000Z,1021.42
2019-05-23T10:09:10.000Z,1021.45
2019-05-23T10:10:10.000Z,1021.47
2019-05-23T10:11:10.000Z,1021.45
2019-05-23T10:12:10.000Z,1021.43
2019-05-23T10:13:10.000Z,1021.37
2019-05-23T10:14:10.000Z,1021.37
2019-05-23T10:15:10.000Z,1021.36
2019-05-23T10:16:10.000Z,1021.36
2019-05-23T10:17:10.000Z,1021.41
2019-05-23T10:18:10.000Z,1021.40
2019-05-23T10:19:10.000Z,1021.35
2019-05-23T10:20:10.000Z,1021.34
2019-05-23T10:21:10.000Z,1021.34
2019-05-23T10:22:10.000Z,1021.33
2019-05-23T10:23:10.000Z,1021.34
2019-05-23T10:24:10.000Z,1021.36
2019-05-23T10:25:10.000Z,1021.36
2019-05-23T10:26:10.000Z,1021.31
2019-05-23T10:27:10.000Z,1021.37
2019-05-23T10:28:11.000Z,1021.36
2019-05-23T10:29:10.000Z,1021.34
2019-05-23T10:30:10.000Z,1021.32
2019-05-23T10:31:11.000Z,1021.29
2019-05-23T10:32:11.000Z,1021.27
2019-05-23T10:33:11.000Z,1021.27
2019-05-23T10:34:10.000Z,1021.25
2019-05-23T10:35:10.000Z,1021.25
2019-05-23T10:36:10.000Z,1021.24
2019-05-23T10:37:10.000Z,1021.24
2019-05-23T10:38:10.000Z,1021.22
2019-05-23T10:39:10.000Z,1021.19
2019-05-23T10:40:10.000Z,1021.17
2019-05-23T10:41:10.000Z,1021.16
2019-05-23T10:42:10.000Z,1021.13
2019-05-23T10:43:10.000Z,1021.14
2019-05-23T10:44:10.000Z,1021.13
2019-05-23T10:45:10.000Z,1021.13
2019-05-23T10:46:10.000Z,1021.13
2019-05-23T10:47:10.000Z,1021.09
2019-05-23T10:48:10.000Z,1021.09
2019-05-23T10:49:10.000Z,1021.02
2019-05-23T10:50:10.000Z,1021.07
2019-05-23T10:51:10.000Z,1021.01
2019-05-23T10:52:10.000Z,1021.00
2019-05-23T10:53:10.000Z,1020.98
2019-05-23T10:54:10.000Z,1020.98
2019-05-23T10:55:10.000Z,1020.98
2019-05-23T10:56:10.000Z,1020.99
2019-05-23T10:57:10.000Z,1020.98
2019-05-23T10:58:10.000Z,1021.01
2019-05-23T10:59:10.000Z,1021.01
2019-05-23T11:00:10.000Z,1020.99
2019-05-23T11:01:10.000Z,1020.98
2019-05-23T11:02:10.000Z,1020.99
2019-05-23T11:03:10.000Z,1020.93
2019-05-23T11:04:10.000Z,1020.96
2019-05-23T11:05:10.000Z,1020.92
2019-05-23T11:06:10.000Z,1020.88
2019-05-23T11:07:11.000Z,1020.86
2019-05-23T11:08:11.000Z,1020.79
2019-05-23T11:09:11.000Z,1020.83
2019-05-23T11:10:11.000Z,1020.85
2019-05-23T11:11:11.000Z,1020.83
2019-05-23T11:12:11.000Z,1020.82
2019-05-23T11:13:11.000Z,1020.81
2019-05-23T11:14:10.000Z,1020.78
2019-05-23T11:15:10.000Z,1020.78
2019-05-23T11:16:10.000Z,1020.77
2019-05-23T11:17:10.000Z,1020.77
2019-05-23T11:18:11.000Z,1020.80
2019-05-23T11:19:10.000Z,1020.83
2019-05-23T11:20:11.000Z,1020.81
2019-05-23T11:21:11.000Z,1020.79
2019-05-23T11:22:10.000Z,1020.79
2019-05-23T11:23:11.000Z,1020.80
2019-05-23T11:24:11.000Z,1020.78
2019-05-23T11:25:10.000Z,1020.78
2019-05-23T11:26:10.000Z,1020.80
2019-05-23T11:27:11.000Z,1020.78
2019-05-23T11:28:10.000Z,1020.79
2019-05-23T11:29:10.000Z,1020.77
2019-05-23T11:30:11.000Z,1020.74
2019-05-23T11:31:11.000Z,1020.74
2019-05-23T11:32:10.000Z,1020.70
2019-05-23T11:33:10.000Z,1020.72
2019-05-23T11:34:10.000Z,1020.71
2019-05-23T11:35:10.000Z,1020.67
2019-05-23T11:36:10.000Z,1020.71
2019-05-23T11:37:10.000Z,1020.65
2019-05-23T11:38:10.000Z,1020.70
2019-05-23T11:39:10.000Z,1020.65
2019-05-23T11:40:11.000Z,1020.68
2019-05-23T11:41:10.000Z,1020.65
2019-05-23T11:42:10.000Z,1020.65
2019-05-23T11:43:10.000Z,1020.65
2019-05-23T11:44:10.000Z,1020.61
2019-05-23T11:45:10.000Z,1020.60
2019-05-23T11:46:10.000Z,1020.59
2019-05-23T11:47:10.000Z,1020.58
2019-05-23T11:48:10.000Z,1020.58
2019-05-23T11:49:11.000Z,1020.55
2019-05-23T11:50:11.000Z,1020.53
2019-05-23T11:51:10.000Z,1020.55
2019-05-23T11:52:10.000Z,1020.49
2019-05-23T11:53:10.000Z,1020.52
2019-05-23T11:54:11.000Z,1020.55
2019-05-23T11:55:10.000Z,1020.55
2019-05-23T11:56:10.000Z,1020.52
2019-05-23T11:57:10.000Z,1020.49
2019-05-23T11:58:10.000Z,1020.50
2019-05-23T11:59:10.000Z,1020.43
2019-05-23T12:00:10.000Z,1020.43
2019-05-23T12:01:10.000Z,1020.42
2019-05-23T12:02:11.000Z,1020.42
2019-05-23T12:03:10.000Z,1020.46
2019-05-23T12:04:11.000Z,1020.37
2019-05-23T12:05:10.000Z,1020.38
2019-05-23T12:06:10.000Z,1020.39
2019-05-23T12:07:10.000Z,1020.40